createdAt,value
2018-01-14T05:00:32.309Z,99.99
2018-01-14T05:00:57.804Z,99.99
2018-01-14T05:02:01.382Z,99.99
2018-01-14T05:02:26.893Z,99.99
2018-01-14T05:02:52.360Z,99.99
2018-01-14T05:03:17.834Z,99.99
2018-01-14T05:03:43.289Z,99.99
2018-01-14T05:04:08.777Z,99.99
2018-01-14T05:04:34.283Z,99.99
2018-01-14T05:04:59.773Z,99.99
2018-01-14T05:05:53.223Z,99.99
2018-01-14T05:06:18.721Z,99.99
2018-01-14T05:06:44.223Z,99.99
2018-01-14T05:07:09.707Z,99.99
2018-01-14T05:07:35.188Z,99.99
2018-01-14T05:08:00.682Z,99.99
2018-01-14T05:08:26.172Z,99.99
2018-01-14T05:08:51.634Z,99.99
2018-01-14T05:09:17.114Z,99.99
2018-01-14T05:09:42.585Z,99.99
2018-01-14T05:10:41.098Z,99.99
2018-01-14T05:11:06.588Z,99.99
2018-01-14T05:11:32.139Z,99.99
2018-01-14T05:11:57.605Z,99.99
2018-01-14T05:12:23.142Z,99.99
2018-01-14T05:12:48.643Z,99.99
2018-01-14T05:13:14.172Z,99.99
2018-01-14T05:13:39.700Z,99.99
2018-01-14T05:14:05.182Z,99.99
2018-01-14T05:14:30.685Z,99.99
2018-01-14T05:14:56.187Z,99.99
2018-01-14T05:15:21.719Z,99.99
2018-01-14T05:15:47.230Z,99.99
2018-01-14T05:16:12.767Z,99.99
2018-01-14T05:16:38.237Z,99.99
2018-01-14T05:17:03.757Z,99.99
2018-01-14T05:17:29.236Z,99.99
2018-01-14T05:17:54.714Z,99.99
2018-01-14T05:18:20.233Z,99.99
2018-01-14T05:18:45.723Z,99.99
2018-01-14T05:19:11.211Z,99.99
2018-01-14T05:19:36.748Z,99.99
2018-01-14T05:20:02.232Z,99.99
2018-01-14T05:20:27.742Z,99.99
2018-01-14T05:20:53.239Z,99.99
2018-01-14T05:21:18.743Z,99.99
2018-01-14T05:21:44.275Z,99.99
2018-01-14T05:22:09.782Z,99.99
2018-01-14T05:22:35.268Z,99.99
2018-01-14T05:23:00.753Z,99.99
2018-01-14T05:23:26.215Z,99.99
2018-01-14T05:23:51.719Z,99.99
2018-01-14T05:24:17.231Z,99.99
2018-01-14T05:24:42.696Z,99.99
2018-01-14T05:25:08.212Z,99.99
2018-01-14T05:25:33.698Z,99.99
2018-01-14T05:25:59.183Z,99.99
2018-01-14T05:26:24.663Z,99.99
2018-01-14T05:26:50.147Z,99.99
2018-01-14T05:27:48.726Z,99.99
2018-01-14T05:28:14.192Z,99.99
2018-01-14T05:28:39.677Z,99.99
2018-01-14T05:29:05.208Z,99.99
2018-01-14T05:29:30.682Z,99.99
2018-01-14T05:29:56.191Z,99.99
2018-01-14T05:30:21.704Z,99.99
2018-01-14T05:30:47.211Z,99.99
2018-01-14T05:31:12.697Z,99.99
2018-01-14T05:31:38.186Z,99.99
2018-01-14T05:32:03.680Z,99.99
2018-01-14T05:32:29.141Z,99.99
2018-01-14T05:32:54.614Z,99.99
2018-01-14T05:33:20.134Z,99.99
2018-01-14T05:33:45.660Z,99.99
2018-01-14T05:34:11.099Z,99.99
2018-01-14T05:34:36.574Z,99.99
2018-01-14T05:35:02.069Z,99.99
2018-01-14T05:35:27.561Z,99.99
2018-01-14T05:35:53.020Z,99.99
2018-01-14T05:36:18.501Z,99.99
2018-01-14T05:36:44.012Z,99.99
2018-01-14T05:37:47.632Z,99.99
2018-01-14T05:38:13.135Z,99.99
2018-01-14T05:38:38.615Z,99.99
2018-01-14T05:39:04.132Z,99.99
2018-01-14T05:39:29.573Z,99.99
2018-01-14T05:39:55.081Z,99.99
2018-01-14T05:40:20.578Z,99.99
2018-01-14T05:40:46.085Z,99.99
2018-01-14T05:41:11.578Z,99.99
2018-01-14T05:41:37.068Z,99.99
2018-01-14T05:42:02.582Z,99.99
2018-01-14T05:42:28.063Z,99.99
2018-01-14T05:42:53.550Z,99.99
2018-01-14T05:43:19.073Z,99.99
2018-01-14T05:43:44.528Z,99.99
2018-01-14T05:44:10.036Z,99.99
2018-01-14T05:44:35.539Z,99.99
2018-01-14T05:45:01.004Z,99.99
2018-01-14T05:45:26.489Z,99.99
2018-01-14T05:45:51.995Z,99.99
2018-01-14T05:46:17.496Z,99.99
2018-01-14T05:46:42.998Z,99.99
2018-01-14T05:47:08.495Z,99.99
2018-01-14T05:47:33.968Z,99.99
2018-01-14T05:47:59.449Z,99.99
2018-01-14T05:48:24.941Z,99.99
2018-01-14T05:48:50.445Z,99.99
2018-01-14T05:49:15.938Z,99.99
2018-01-14T05:49:41.418Z,99.99
2018-01-14T05:50:06.896Z,99.99
2018-01-14T05:50:32.373Z,99.95
2018-01-14T05:50:57.865Z,99.66
2018-01-14T05:51:23.332Z,99.85
2018-01-14T05:51:48.820Z,99.99
2018-01-14T05:52:14.294Z,99.99
2018-01-14T05:52:39.792Z,99.99
2018-01-14T05:53:05.274Z,99.99
2018-01-14T05:53:30.746Z,99.99
2018-01-14T05:53:56.260Z,99.99
2018-01-14T05:54:21.742Z,99.99
2018-01-14T05:54:47.222Z,99.99
2018-01-14T05:56:01.029Z,99.99
2018-01-14T05:56:26.518Z,99.99
2018-01-14T05:56:52.005Z,99.99
2018-01-14T05:57:17.498Z,99.99
2018-01-14T05:57:43.003Z,99.99
2018-01-14T05:58:08.495Z,99.99
2018-01-14T05:58:34.000Z,99.48
2018-01-14T05:58:59.463Z,99.99
2018-01-14T05:59:24.971Z,99.76
2018-01-14T05:59:50.431Z,99.85
2018-01-14T06:00:15.939Z,99.85
2018-01-14T06:00:41.453Z,99.95
2018-01-14T06:01:06.942Z,99.99
2018-01-14T06:01:32.411Z,99.99
2018-01-14T06:01:57.879Z,99.99
2018-01-14T06:02:23.356Z,99.66
2018-01-14T06:02:48.864Z,99.48
2018-01-14T06:03:14.308Z,99.99
2018-01-14T06:03:39.840Z,99.99
2018-01-14T06:04:05.302Z,99.99
2018-01-14T06:04:30.800Z,99.99
2018-01-14T06:04:56.289Z,99.99
2018-01-14T06:05:54.814Z,99.99
2018-01-14T06:06:20.321Z,99.57
2018-01-14T06:06:45.792Z,99.76
2018-01-14T06:07:11.334Z,99.57
2018-01-14T06:08:04.797Z,99.99
2018-01-14T06:08:30.298Z,99.99
2018-01-14T06:08:55.773Z,99.99
2018-01-14T06:09:21.237Z,99.99
2018-01-14T06:09:46.708Z,99.99
2018-01-14T06:10:12.196Z,99.99
2018-01-14T06:11:05.787Z,99.99
2018-01-14T06:11:31.283Z,99.99
2018-01-14T06:11:56.747Z,99.99
2018-01-14T06:12:22.275Z,99.99
2018-01-14T06:12:47.809Z,99.99
2018-01-14T06:13:13.317Z,99.99
2018-01-14T06:13:38.797Z,99.99
2018-01-14T06:14:04.305Z,99.99
2018-01-14T06:14:29.854Z,99.85
2018-01-14T06:14:55.326Z,99.99
2018-01-14T06:15:20.784Z,99.99
2018-01-14T06:15:46.280Z,99.48
2018-01-14T06:16:11.807Z,99.99
2018-01-14T06:16:37.319Z,99.99
2018-01-14T06:17:02.776Z,99.99
2018-01-14T06:17:28.257Z,99.76
2018-01-14T06:17:53.755Z,99.76
2018-01-14T06:18:19.248Z,99.76
2018-01-14T06:18:44.746Z,99.48
2018-01-14T06:19:10.252Z,99.48
2018-01-14T06:19:35.737Z,99.48
2018-01-14T06:20:01.239Z,99.48
2018-01-14T06:20:26.729Z,99.38
2018-01-14T06:20:52.236Z,99.57
2018-01-14T06:21:17.721Z,99.95
2018-01-14T06:21:43.212Z,99.95
2018-01-14T06:22:08.726Z,99.99
2018-01-14T06:22:34.241Z,99.85
2018-01-14T06:22:59.748Z,99.57
2018-01-14T06:23:25.246Z,99.66
2018-01-14T06:23:50.758Z,99.85
2018-01-14T06:24:16.209Z,99.66
2018-01-14T06:24:41.711Z,99.99
2018-01-14T06:25:07.217Z,99.99
2018-01-14T06:25:32.715Z,99.99
2018-01-14T06:25:58.217Z,99.99
2018-01-14T06:26:23.708Z,99.99
2018-01-14T06:26:49.162Z,99.99
2018-01-14T06:27:14.661Z,99.95
2018-01-14T06:27:40.145Z,99.76
2018-01-14T06:28:05.648Z,99.57
2018-01-14T06:28:31.091Z,99.66
2018-01-14T06:28:56.557Z,99.48
2018-01-14T06:29:50.018Z,99.57
2018-01-14T06:30:15.479Z,99.19
2018-01-14T06:30:40.972Z,99.85
2018-01-14T06:31:06.454Z,99.48
2018-01-14T06:31:31.984Z,99.48
2018-01-14T06:31:57.474Z,99.95
2018-01-14T06:32:23.008Z,99.48
2018-01-14T06:32:48.474Z,99.38
2018-01-14T06:33:13.925Z,99.29
2018-01-14T06:33:39.438Z,99.95
2018-01-14T06:34:04.960Z,99.66
2018-01-14T06:34:30.414Z,99.57
2018-01-14T06:34:55.903Z,99.85
2018-01-14T06:35:21.387Z,99.76
2018-01-14T06:35:46.849Z,99.66
2018-01-14T06:36:12.361Z,99.66
2018-01-14T06:36:37.864Z,99.99
2018-01-14T06:37:03.371Z,99.99
2018-01-14T06:37:56.330Z,99.85
2018-01-14T06:38:21.809Z,99.76
2018-01-14T06:38:47.304Z,99.76
2018-01-14T06:39:12.797Z,99.99
2018-01-14T06:39:38.309Z,99.57
2018-01-14T06:40:03.794Z,99.48
2018-01-14T06:40:29.321Z,99.66
2018-01-14T06:40:54.814Z,99.99
2018-01-14T06:41:20.285Z,99.85
2018-01-14T06:41:45.771Z,99.66
2018-01-14T06:42:11.267Z,99.57
2018-01-14T06:42:36.737Z,99.48
2018-01-14T06:43:35.259Z,99.48
2018-01-14T06:44:00.741Z,99.66
2018-01-14T06:44:26.244Z,99.48
2018-01-14T06:44:51.735Z,99.29
2018-01-14T06:45:17.227Z,99.19
2018-01-14T06:45:42.705Z,99.48
2018-01-14T06:46:41.226Z,99.66
2018-01-14T06:47:06.692Z,99.57
2018-01-14T06:47:32.202Z,99.48
2018-01-14T06:47:57.689Z,99.38
2018-01-14T06:48:23.187Z,99.19
2018-01-14T06:48:48.757Z,99.48
2018-01-14T06:49:14.242Z,99.48
2018-01-14T06:49:39.717Z,99.29
2018-01-14T06:50:05.219Z,99.95
2018-01-14T06:50:30.725Z,99.29
2018-01-14T06:50:56.219Z,99.66
2018-01-14T06:51:21.721Z,99.66
2018-01-14T06:51:47.192Z,99.66
2018-01-14T06:52:12.698Z,99.1
2018-01-14T06:52:38.201Z,99.1
2018-01-14T06:53:03.722Z,98.82
2018-01-14T06:53:29.220Z,99.19
2018-01-14T06:53:54.724Z,99.48
2018-01-14T06:54:20.264Z,99.01
2018-01-14T06:54:45.777Z,99.66
2018-01-14T06:55:59.555Z,99.85
2018-01-14T06:56:25.028Z,99.66
2018-01-14T06:56:50.512Z,99.48
2018-01-14T06:57:16.002Z,99.19
2018-01-14T06:57:41.460Z,99.19
2018-01-14T06:58:06.973Z,99.66
2018-01-14T06:58:32.455Z,99.38
2018-01-14T06:58:58.002Z,99.57
2018-01-14T06:59:23.482Z,99.19
2018-01-14T06:59:49.005Z,99.29
2018-01-14T07:00:14.463Z,99.66
2018-01-14T07:00:39.973Z,99.48
2018-01-14T07:01:05.463Z,99.19
2018-01-14T07:01:30.958Z,99.38
2018-01-14T07:01:56.425Z,99.48
2018-01-14T07:02:21.931Z,99.48
2018-01-14T07:02:47.455Z,99.19
2018-01-14T07:03:12.944Z,99.57
2018-01-14T07:03:38.457Z,99.19
2018-01-14T07:04:41.594Z,98.63
2018-01-14T07:05:07.060Z,98.72
2018-01-14T07:05:32.548Z,98.72
2018-01-14T07:05:58.008Z,99.19
2018-01-14T07:06:23.501Z,98.82
2018-01-14T07:07:27.139Z,99.1
2018-01-14T07:07:52.627Z,98.72
2018-01-14T07:08:18.111Z,98.91
2018-01-14T07:08:43.605Z,98.72
2018-01-14T07:09:09.109Z,99.19
2018-01-14T07:09:34.624Z,99.29
2018-01-14T07:10:00.113Z,99.1
2018-01-14T07:10:25.613Z,99.19
2018-01-14T07:10:51.129Z,99.48
2018-01-14T07:11:16.581Z,99.66
2018-01-14T07:11:42.096Z,98.72
2018-01-14T07:12:07.584Z,98.91
2018-01-14T07:12:33.091Z,98.91
2018-01-14T07:12:58.593Z,98.63
2018-01-14T07:13:52.012Z,99.1
2018-01-14T07:14:17.506Z,99.19
2018-01-14T07:14:43.010Z,99.1
2018-01-14T07:15:08.507Z,98.72
2018-01-14T07:15:34.001Z,98.91
2018-01-14T07:15:59.495Z,98.91
2018-01-14T07:16:24.955Z,99.1
2018-01-14T07:17:28.554Z,98.91
2018-01-14T07:17:54.035Z,98.44
2018-01-14T07:18:19.504Z,98.72
2018-01-14T07:18:44.959Z,98.44
2018-01-14T07:19:10.437Z,98.63
2018-01-14T07:19:35.891Z,99.1
2018-01-14T07:20:01.416Z,99.1
2018-01-14T07:20:26.943Z,99.1
2018-01-14T07:20:52.431Z,98.72
2018-01-14T07:21:17.953Z,98.91
2018-01-14T07:21:43.404Z,98.15
2018-01-14T07:22:08.912Z,98.44
2018-01-14T07:22:34.397Z,98.72
2018-01-14T07:22:59.937Z,98.91
2018-01-14T07:23:25.459Z,98.06
2018-01-14T07:23:50.948Z,98.53
2018-01-14T07:24:16.447Z,98.91
2018-01-14T07:25:10.034Z,98.06
2018-01-14T07:26:08.545Z,98.72
2018-01-14T07:26:34.131Z,97.77
2018-01-14T07:26:59.608Z,98.15
2018-01-14T07:27:25.098Z,98.15
2018-01-14T07:27:50.596Z,98.25
2018-01-14T07:28:16.083Z,98.15
2018-01-14T07:28:41.565Z,98.34
2018-01-14T07:29:40.083Z,97.77
2018-01-14T07:30:05.580Z,98.06
2018-01-14T07:30:31.069Z,97.87
2018-01-14T07:30:56.583Z,98.34
2018-01-14T07:31:22.068Z,98.06
2018-01-14T07:31:47.567Z,97.87
2018-01-14T07:32:13.088Z,98.06
2018-01-14T07:32:38.623Z,98.06
2018-01-14T07:33:04.147Z,98.06
2018-01-14T07:34:07.776Z,98.72
2018-01-14T07:34:33.287Z,98.25
2018-01-14T07:34:58.799Z,98.25
2018-01-14T07:35:24.290Z,98.53
2018-01-14T07:35:49.749Z,98.44
2018-01-14T07:36:15.259Z,98.63
2018-01-14T07:37:29.080Z,98.44
2018-01-14T07:37:54.571Z,99.01
2018-01-14T07:38:20.072Z,99.1
2018-01-14T07:38:45.537Z,98.82
2018-01-14T07:39:11.063Z,98.44
2018-01-14T07:39:36.551Z,98.53
2018-01-14T07:40:02.066Z,98.53
2018-01-14T07:40:27.522Z,98.91
2018-01-14T07:40:53.050Z,98.91
2018-01-14T07:41:18.550Z,99.1
2018-01-14T07:42:22.142Z,99.1
2018-01-14T07:42:47.641Z,99.66
2018-01-14T07:43:13.149Z,99.76
2018-01-14T07:43:38.684Z,99.66
2018-01-14T07:44:04.169Z,99.48
2018-01-14T07:44:29.635Z,99.66
2018-01-14T07:44:55.126Z,99.57
2018-01-14T07:45:20.616Z,99.48
2018-01-14T07:45:46.090Z,99.66
2018-01-14T07:46:11.623Z,99.57
2018-01-14T07:46:37.124Z,99.48
2018-01-14T07:47:02.620Z,98.82
2018-01-14T07:47:28.083Z,98.91
2018-01-14T07:47:53.594Z,99.1
2018-01-14T07:48:19.128Z,99.01
2018-01-14T07:48:44.589Z,98.53
2018-01-14T07:49:10.112Z,98.82
2018-01-14T07:49:35.586Z,98.53
2018-01-14T07:50:01.079Z,98.82
2018-01-14T07:50:26.613Z,98.72
2018-01-14T07:50:52.100Z,98.53
2018-01-14T07:51:17.595Z,98.63
2018-01-14T07:51:43.075Z,98.63
2018-01-14T07:52:08.540Z,98.15
2018-01-14T07:53:22.333Z,97.96
2018-01-14T07:53:47.818Z,97.68
2018-01-14T07:54:13.318Z,98.15
2018-01-14T07:54:38.821Z,98.44
2018-01-14T07:55:04.337Z,98.06
2018-01-14T07:55:29.828Z,98.25
2018-01-14T07:55:55.323Z,98.53
2018-01-14T07:56:20.825Z,98.34
2018-01-14T07:56:46.359Z,98.34
2018-01-14T07:57:11.890Z,98.63
2018-01-14T07:57:37.372Z,98.72
2018-01-14T07:58:02.902Z,98.15
2018-01-14T07:58:28.390Z,98.25
2018-01-14T07:58:53.883Z,98.53
2018-01-14T07:59:19.399Z,98.34
2018-01-14T07:59:44.888Z,98.25
2018-01-14T08:00:10.402Z,98.06
2018-01-14T08:00:35.934Z,97.96
2018-01-14T08:01:01.428Z,98.06
2018-01-14T08:01:26.911Z,98.82
2018-01-14T08:01:52.461Z,98.82
2018-01-14T08:02:17.977Z,98.15
2018-01-14T08:03:21.598Z,98.25
2018-01-14T08:03:47.117Z,98.72
2018-01-14T08:04:12.636Z,97.87
2018-01-14T08:04:38.126Z,97.87
2018-01-14T08:05:03.651Z,97.87
2018-01-14T08:05:29.176Z,98.25
2018-01-14T08:05:54.643Z,97.77
2018-01-14T08:06:20.126Z,99.01
2018-01-14T08:06:45.604Z,99.01
2018-01-14T08:07:11.072Z,98.72
2018-01-14T08:07:36.526Z,99.01
2018-01-14T08:08:02.013Z,98.82
2018-01-14T08:09:10.745Z,98.63
2018-01-14T08:09:36.242Z,98.63
2018-01-14T08:10:01.733Z,98.63
2018-01-14T08:10:27.211Z,98.44
2018-01-14T08:10:52.700Z,99.1
2018-01-14T08:11:18.213Z,98.91
2018-01-14T08:11:43.683Z,98.82
2018-01-14T08:12:09.197Z,99.76
2018-01-14T08:12:34.720Z,99.19
2018-01-14T08:13:00.203Z,99.01
2018-01-14T08:14:14.133Z,98.72
2018-01-14T08:14:39.638Z,98.15
2018-01-14T08:15:05.101Z,98.82
2018-01-14T08:15:30.632Z,98.53
2018-01-14T08:15:56.162Z,98.44
2018-01-14T08:16:21.662Z,98.72
2018-01-14T08:16:47.130Z,98.91
2018-01-14T08:17:12.581Z,98.63
2018-01-14T08:17:38.051Z,98.44
2018-01-14T08:18:03.533Z,98.15
2018-01-14T08:18:29.045Z,98.06
2018-01-14T08:18:54.568Z,97.77
2018-01-14T08:19:20.015Z,97.96
2018-01-14T08:19:45.527Z,98.15
2018-01-14T08:20:10.972Z,98.25
2018-01-14T08:20:36.495Z,98.53
2018-01-14T08:21:01.968Z,98.63
2018-01-14T08:21:27.429Z,98.72
2018-01-14T08:21:52.899Z,98.44
2018-01-14T08:22:18.396Z,98.25
2018-01-14T08:22:43.865Z,98.25
2018-01-14T08:23:09.342Z,97.96
2018-01-14T08:23:34.790Z,98.34
2018-01-14T08:24:00.287Z,98.06
2018-01-14T08:24:25.776Z,98.63
2018-01-14T08:24:51.214Z,98.25
2018-01-14T08:25:16.685Z,98.25
2018-01-14T08:25:42.125Z,98.15
2018-01-14T08:26:07.573Z,98.82
2018-01-14T08:26:33.029Z,98.72
2018-01-14T08:26:58.527Z,98.53
2018-01-14T08:27:24.072Z,98.44
2018-01-14T08:27:49.580Z,98.63
2018-01-14T08:28:15.047Z,98.82
2018-01-14T08:28:40.533Z,98.53
2018-01-14T08:29:06.004Z,98.25
2018-01-14T08:29:31.440Z,98.25
2018-01-14T08:29:56.912Z,98.34
2018-01-14T08:30:22.379Z,98.25
2018-01-14T08:30:47.878Z,98.72
2018-01-14T08:31:13.396Z,98.63
2018-01-14T08:31:38.918Z,98.82
2018-01-14T08:32:04.404Z,99.1
2018-01-14T08:32:29.904Z,98.25
2018-01-14T08:32:55.400Z,98.82
2018-01-14T08:33:20.908Z,98.44
2018-01-14T08:33:46.405Z,98.06
2018-01-14T08:34:11.911Z,98.15
2018-01-14T08:34:37.480Z,98.34
2018-01-14T08:35:02.926Z,98.34
2018-01-14T08:35:28.429Z,97.87
2018-01-14T08:35:53.916Z,98.15
2018-01-14T08:36:19.410Z,98.15
2018-01-14T08:36:44.899Z,98.34
2018-01-14T08:37:43.417Z,98.25
2018-01-14T08:38:08.902Z,98.06
2018-01-14T08:38:34.441Z,98.06
2018-01-14T08:38:59.920Z,98.53
2018-01-14T08:39:25.418Z,98.91
2018-01-14T08:39:50.895Z,98.25
2018-01-14T08:40:16.360Z,97.96
2018-01-14T08:40:41.840Z,97.96
2018-01-14T08:41:07.330Z,98.06
2018-01-14T08:41:32.815Z,98.06
2018-01-14T08:41:58.292Z,98.25
2018-01-14T08:42:23.776Z,97.77
2018-01-14T08:42:49.302Z,98.15
2018-01-14T08:43:14.824Z,98.15
2018-01-14T08:43:40.311Z,98.25
2018-01-14T08:44:05.801Z,98.06
2018-01-14T08:44:31.324Z,98.25
2018-01-14T08:44:56.804Z,98.06
2018-01-14T08:45:22.276Z,97.87
2018-01-14T08:45:47.774Z,98.63
2018-01-14T08:46:13.278Z,98.44
2018-01-14T08:46:38.762Z,98.72
2018-01-14T08:47:04.274Z,98.53
2018-01-14T08:47:29.713Z,98.63
2018-01-14T08:47:55.209Z,98.91
2018-01-14T08:48:20.750Z,99.01
2018-01-14T08:48:46.265Z,98.06
2018-01-14T08:49:11.752Z,98.44
2018-01-14T08:49:37.239Z,98.82
2018-01-14T08:50:51.034Z,98.53
2018-01-14T08:51:16.536Z,99.1
2018-01-14T08:51:42.021Z,99.1
2018-01-14T08:52:07.493Z,98.34
2018-01-14T08:52:33.076Z,98.53
2018-01-14T08:52:58.539Z,99.01
2018-01-14T08:53:24.000Z,98.91
2018-01-14T08:53:49.574Z,99.1
2018-01-14T08:54:15.008Z,99.29
2018-01-14T08:54:40.466Z,99.66
2018-01-14T08:55:05.948Z,99.57
2018-01-14T08:55:31.384Z,98.72
2018-01-14T08:55:56.877Z,99.01
2018-01-14T08:56:22.342Z,98.72
2018-01-14T08:56:47.814Z,98.91
2018-01-14T08:57:13.257Z,98.91
2018-01-14T08:57:38.686Z,98.91
2018-01-14T08:58:04.203Z,98.53
2018-01-14T08:58:29.663Z,99.01
2018-01-14T08:59:28.196Z,99.1
2018-01-14T08:59:53.660Z,99.01
2018-01-14T09:00:19.157Z,98.82
2018-01-14T09:00:44.667Z,98.91
2018-01-14T09:01:10.134Z,98.72
2018-01-14T09:01:35.668Z,98.82
2018-01-14T09:02:01.140Z,98.91
2018-01-14T09:02:26.620Z,98.63
2018-01-14T09:02:52.103Z,99.1
2018-01-14T09:03:17.569Z,99.57
2018-01-14T09:03:43.076Z,99.38
2018-01-14T09:04:08.565Z,99.48
2018-01-14T09:04:34.024Z,99.57
2018-01-14T09:04:59.561Z,99.57
2018-01-14T09:05:25.045Z,99.57
2018-01-14T09:05:50.551Z,99.29
2018-01-14T09:06:16.050Z,99.29
2018-01-14T09:06:41.496Z,99.19
2018-01-14T09:07:06.945Z,99.48
2018-01-14T09:07:32.418Z,99.76
2018-01-14T09:07:57.952Z,99.76
2018-01-14T09:08:23.435Z,99.57
2018-01-14T09:08:48.907Z,99.29
2018-01-14T09:09:14.358Z,99.48
2018-01-14T09:09:39.884Z,99.66
2018-01-14T09:10:05.336Z,99.76
2018-01-14T09:10:30.805Z,99.29
2018-01-14T09:11:44.568Z,99.01
2018-01-14T09:12:10.035Z,99.1
2018-01-14T09:12:35.544Z,98.72
2018-01-14T09:13:01.015Z,98.44
2018-01-14T09:13:26.483Z,98.72
2018-01-14T09:13:51.938Z,99.57
2018-01-14T09:14:17.399Z,98.82
2018-01-14T09:14:42.926Z,99.19
2018-01-14T09:15:08.418Z,99.1
2018-01-14T09:15:33.882Z,99.76
2018-01-14T09:15:59.392Z,99.66
2018-01-14T09:16:24.852Z,99.48
2018-01-14T09:16:50.318Z,99.38
2018-01-14T09:17:43.775Z,99.19
2018-01-14T09:18:09.273Z,99.57
2018-01-14T09:18:34.865Z,99.66
2018-01-14T09:19:00.318Z,99.66
2018-01-14T09:19:25.797Z,99.48
2018-01-14T09:19:51.245Z,99.66
2018-01-14T09:20:16.721Z,99.48
2018-01-14T09:20:42.203Z,99.48
2018-01-14T09:21:07.694Z,99.38
2018-01-14T09:21:33.158Z,99.48
2018-01-14T09:21:58.610Z,98.82
2018-01-14T09:22:24.091Z,99.48
2018-01-14T09:22:49.612Z,99.57
2018-01-14T09:23:15.054Z,99.29
2018-01-14T09:23:40.538Z,99.66
2018-01-14T09:24:06.041Z,99.48
2018-01-14T09:24:31.502Z,99.29
2018-01-14T09:24:56.995Z,99.38
2018-01-14T09:25:22.462Z,99.29
2018-01-14T09:25:47.991Z,99.38
2018-01-14T09:26:13.479Z,99.95
2018-01-14T09:26:38.942Z,99.66
2018-01-14T09:27:04.424Z,99.76
2018-01-14T09:27:29.920Z,99.85
2018-01-14T09:27:55.347Z,99.85
2018-01-14T09:28:20.826Z,99.66
2018-01-14T09:28:46.283Z,99.38
2018-01-14T09:29:11.761Z,99.29
2018-01-14T09:29:37.211Z,99.38
2018-01-14T09:30:02.679Z,99.29
2018-01-14T09:30:28.213Z,99.29
2018-01-14T09:30:53.713Z,99.38
2018-01-14T09:31:19.204Z,99.29
2018-01-14T09:31:44.668Z,99.57
2018-01-14T09:32:10.134Z,99.57
2018-01-14T09:32:35.596Z,99.57
2018-01-14T09:33:01.111Z,99.48
2018-01-14T09:33:26.622Z,99.57
2018-01-14T09:33:52.087Z,99.38
2018-01-14T09:34:17.555Z,99.19
2018-01-14T09:34:43.006Z,99.29
2018-01-14T09:35:08.492Z,99.57
2018-01-14T09:35:33.974Z,99.95
2018-01-14T09:35:59.646Z,99.48
2018-01-14T09:36:25.221Z,99.29
2018-01-14T09:36:50.648Z,99.66
2018-01-14T09:37:16.114Z,99.48
2018-01-14T09:37:41.584Z,99.57
2018-01-14T09:38:07.069Z,99.57
2018-01-14T09:38:32.846Z,98.91
2018-01-14T09:38:58.315Z,99.1
2018-01-14T09:39:23.758Z,99.05
2018-01-14T09:39:49.230Z,98.77
2018-01-14T09:40:14.723Z,98.72
2018-01-14T09:40:40.192Z,99.1
2018-01-14T09:41:05.636Z,98.82
2018-01-14T09:41:59.105Z,98.72
2018-01-14T09:42:24.599Z,98.91
2018-01-14T09:42:50.057Z,99.9
2018-01-14T09:43:15.543Z,99.1
2018-01-14T09:43:41.003Z,99.29
2018-01-14T09:44:06.510Z,99.57
2018-01-14T09:44:31.946Z,99.43
2018-01-14T09:44:57.417Z,99.57
2018-01-14T09:45:22.932Z,99.52
2018-01-14T09:45:48.406Z,99.33
2018-01-14T09:46:13.865Z,99.24
2018-01-14T09:46:39.375Z,98.77
2018-01-14T09:47:04.838Z,98.58
2018-01-14T09:47:30.270Z,99.15
2018-01-14T09:47:55.747Z,98.91
2018-01-14T09:48:49.371Z,98.68
2018-01-14T09:49:14.876Z,98.58
2018-01-14T09:49:40.365Z,98.77
2018-01-14T09:50:05.794Z,98.96
2018-01-14T09:50:31.269Z,98.77
2018-01-14T09:50:56.740Z,98.2
2018-01-14T09:51:22.266Z,98.86
2018-01-14T09:51:47.767Z,98.86
2018-01-14T09:52:13.242Z,98.11
2018-01-14T09:52:38.762Z,97.82
2018-01-14T09:53:04.297Z,98.3
2018-01-14T09:53:29.780Z,97.92
2018-01-14T09:53:55.283Z,97.92
2018-01-14T09:54:20.760Z,98.11
2018-01-14T09:54:46.201Z,97.73
2018-01-14T09:55:11.735Z,98.39
2018-01-14T09:56:05.189Z,98.86
2018-01-14T09:56:30.662Z,98.96
2018-01-14T09:56:56.128Z,98.77
2018-01-14T09:57:21.623Z,98.39
2018-01-14T09:57:47.090Z,98.01
2018-01-14T09:58:12.591Z,98.11
2018-01-14T09:58:38.037Z,98.3
2018-01-14T09:59:03.514Z,98.11
2018-01-14T09:59:29.099Z,98.49
2018-01-14T10:00:37.823Z,98.2
2018-01-14T10:01:03.310Z,98.49
2018-01-14T10:01:28.816Z,98.68
2018-01-14T10:01:54.393Z,98.2
2018-01-14T10:02:19.814Z,97.92
2018-01-14T10:02:45.297Z,97.92
2018-01-14T10:03:10.821Z,98.2
2018-01-14T10:03:36.282Z,97.92
2018-01-14T10:04:01.710Z,98.11
2018-01-14T10:04:27.205Z,98.2
2018-01-14T10:04:52.669Z,98.3
2018-01-14T10:05:18.151Z,97.25
2018-01-14T10:05:43.606Z,97.92
2018-01-14T10:06:09.085Z,98.2
2018-01-14T10:06:34.595Z,98.39
2018-01-14T10:07:00.148Z,98.2
2018-01-14T10:07:25.623Z,97.92
2018-01-14T10:07:51.127Z,97.92
2018-01-14T10:08:16.585Z,97.73
2018-01-14T10:08:42.046Z,97.25
2018-01-14T10:09:07.494Z,97.25
2018-01-14T10:09:32.971Z,97.82
2018-01-14T10:09:58.467Z,97.06
2018-01-14T10:10:23.940Z,97.35
2018-01-14T10:10:49.393Z,97.82
2018-01-14T10:11:14.976Z,97.35
2018-01-14T10:12:23.677Z,96.59
2018-01-14T10:12:49.154Z,96.69
2018-01-14T10:13:14.634Z,97.44
2018-01-14T10:13:40.078Z,96.4
2018-01-14T10:14:05.533Z,96.31
2018-01-14T10:14:31.002Z,96.21
2018-01-14T10:14:56.519Z,96.02
2018-01-14T10:15:21.915Z,95.17
2018-01-14T10:15:47.379Z,94.79
2018-01-14T10:16:12.827Z,94.6
2018-01-14T10:16:38.286Z,94.89
2018-01-14T10:17:03.799Z,94.98
2018-01-14T10:17:29.320Z,95.36
2018-01-14T10:17:54.808Z,95.45
2018-01-14T10:18:20.287Z,95.74
2018-01-14T10:18:45.740Z,96.31
2018-01-14T10:19:11.205Z,96.12
2018-01-14T10:19:36.705Z,95.83
2018-01-14T10:20:02.156Z,96.21
2018-01-14T10:20:27.621Z,96.4
2018-01-14T10:20:53.078Z,96.5
2018-01-14T10:21:18.539Z,96.4
2018-01-14T10:21:44.007Z,96.69
2018-01-14T10:22:09.447Z,96.78
2018-01-14T10:22:34.900Z,96.88
2018-01-14T10:23:00.390Z,96.69
2018-01-14T10:23:25.834Z,96.12
2018-01-14T10:23:51.307Z,96.02
2018-01-14T10:24:16.793Z,96.4
2018-01-14T10:24:42.230Z,96.4
2018-01-14T10:25:07.712Z,96.5
2018-01-14T10:25:33.161Z,96.4
2018-01-14T10:25:58.636Z,96.12
2018-01-14T10:26:24.099Z,95.36
2018-01-14T10:26:49.580Z,95.55
2018-01-14T10:27:58.255Z,95.55
2018-01-14T10:28:23.754Z,95.64
2018-01-14T10:28:49.232Z,95.55
2018-01-14T10:29:14.739Z,95.36
2018-01-14T10:29:40.241Z,96.21
2018-01-14T10:30:05.682Z,96.02
2018-01-14T10:30:31.251Z,96.02
2018-01-14T10:30:56.682Z,96.31
2018-01-14T10:31:22.136Z,96.02
2018-01-14T10:31:47.588Z,95.55
2018-01-14T10:32:13.083Z,95.55
2018-01-14T10:32:38.587Z,95.07
2018-01-14T10:33:42.357Z,94.98
2018-01-14T10:34:07.818Z,95.17
2018-01-14T10:34:33.316Z,94.98
2018-01-14T10:35:26.733Z,94.6
2018-01-14T10:35:52.250Z,94.6
2018-01-14T10:36:17.717Z,94.89
2018-01-14T10:36:43.202Z,94.89
2018-01-14T10:37:08.682Z,94.79
2018-01-14T10:37:34.141Z,95.17
2018-01-14T10:37:59.614Z,94.51
2018-01-14T10:38:25.115Z,94.6
2018-01-14T10:38:50.557Z,94.32
2018-01-14T10:39:16.070Z,94.7
2018-01-14T10:39:41.544Z,94.89
2018-01-14T10:40:07.030Z,94.79
2018-01-14T10:40:32.514Z,94.51
2018-01-14T10:40:58.004Z,94.6
2018-01-14T10:41:23.493Z,94.79
2018-01-14T10:41:49.043Z,94.51
2018-01-14T10:42:14.504Z,94.6
2018-01-14T10:42:39.952Z,94.89
2018-01-14T10:43:33.430Z,95.55
2018-01-14T10:43:58.932Z,94.79
2018-01-14T10:44:24.396Z,94.6
2018-01-14T10:44:49.939Z,94.7
2018-01-14T10:45:15.458Z,94.79
2018-01-14T10:45:40.944Z,94.79
2018-01-14T10:46:06.409Z,94.79
2018-01-14T10:46:31.900Z,94.7
2018-01-14T10:46:57.342Z,94.51
2018-01-14T10:47:22.865Z,94.7
2018-01-14T10:48:27.173Z,94.89
2018-01-14T10:48:52.660Z,94.42
2018-01-14T10:49:18.277Z,94.98
2018-01-14T10:49:43.900Z,94.6
2018-01-14T10:50:09.170Z,95.36
2018-01-14T10:50:34.657Z,94.79
2018-01-14T10:51:43.345Z,94.46
2018-01-14T10:52:08.852Z,94.56
2018-01-14T10:52:34.325Z,94.79
2018-01-14T10:53:00.030Z,94.89
2018-01-14T10:53:25.767Z,94.65
2018-01-14T10:53:51.274Z,94.79
2018-01-14T10:54:17.209Z,94.37
2018-01-14T10:54:42.860Z,94.51
2018-01-14T10:55:08.545Z,94.42
2018-01-14T10:55:34.002Z,94.42
2018-01-14T10:55:59.678Z,94.84